sensor_id;sensor_type;location;lat;lon;timestamp;P1;durP1;ratioP1;P2;durP2;ratioP2
69989;SDS011;57331;52.054;5.294;2023-04-06T00:01:20;18.77;;;8.23;;
69989;SDS011;57331;52.054;5.294;2023-04-06T00:03:47;17.60;;;8.07;;
69989;SDS011;57331;52.054;5.294;2023-04-06T00:06:14;20.25;;;8.63;;
69989;SDS011;57331;52.054;5.294;2023-04-06T00:08:42;19.05;;;8.82;;
69989;SDS011;57331;52.054;5.294;2023-04-06T00:11:11;20.20;;;7.78;;
69989;SDS011;57331;52.054;5.294;2023-04-06T00:13:38;16.55;;;8.40;;
69989;SDS011;57331;52.054;5.294;2023-04-06T00:16:06;18.20;;;8.13;;
69989;SDS011;57331;52.054;5.294;2023-04-06T00:18:33;19.40;;;8.05;;
69989;SDS011;57331;52.054;5.294;2023-04-06T00:21:01;17.83;;;7.28;;
69989;SDS011;57331;52.054;5.294;2023-04-06T00:23:28;18.13;;;7.00;;
69989;SDS011;57331;52.054;5.294;2023-04-06T00:25:56;17.88;;;7.65;;
69989;SDS011;57331;52.054;5.294;2023-04-06T00:28:23;15.73;;;7.47;;
69989;SDS011;57331;52.054;5.294;2023-04-06T00:30:54;19.73;;;8.02;;
69989;SDS011;57331;52.054;5.294;2023-04-06T00:33:22;16.30;;;7.80;;
69989;SDS011;57331;52.054;5.294;2023-04-06T00:35:50;15.70;;;6.88;;
69989;SDS011;57331;52.054;5.294;2023-04-06T00:38:17;16.33;;;7.32;;
69989;SDS011;57331;52.054;5.294;2023-04-06T00:40:44;17.00;;;8.33;;
69989;SDS011;57331;52.054;5.294;2023-04-06T00:43:11;18.60;;;8.98;;
69989;SDS011;57331;52.054;5.294;2023-04-06T00:45:39;16.35;;;7.72;;
69989;SDS011;57331;52.054;5.294;2023-04-06T00:48:07;18.73;;;8.02;;
69989;SDS011;57331;52.054;5.294;2023-04-06T00:50:34;16.23;;;7.97;;
69989;SDS011;57331;52.054;5.294;2023-04-06T00:53:02;19.53;;;8.17;;
69989;SDS011;57331;52.054;5.294;2023-04-06T00:55:29;19.75;;;8.50;;
69989;SDS011;57331;52.054;5.294;2023-04-06T00:57:58;12.48;;;6.18;;
69989;SDS011;57331;52.054;5.294;2023-04-06T01:00:29;17.17;;;6.85;;
69989;SDS011;57331;52.054;5.294;2023-04-06T01:02:59;20.00;;;8.77;;
69989;SDS011;57331;52.054;5.294;2023-04-06T01:05:35;15.83;;;7.53;;
69989;SDS011;57331;52.054;5.294;2023-04-06T01:08:12;15.80;;;7.35;;
69989;SDS011;57331;52.054;5.294;2023-04-06T01:10:39;15.43;;;7.43;;
69989;SDS011;57331;52.054;5.294;2023-04-06T01:13:13;16.77;;;7.00;;
69989;SDS011;57331;52.054;5.294;2023-04-06T01:15:56;14.20;;;6.30;;
69989;SDS011;57331;52.054;5.294;2023-04-06T01:18:47;15.67;;;7.40;;
69989;SDS011;57331;52.054;5.294;2023-04-06T01:21:18;13.45;;;6.13;;
69989;SDS011;57331;52.054;5.294;2023-04-06T01:24:24;18.45;;;7.22;;
69989;SDS011;57331;52.054;5.294;2023-04-06T01:27:08;15.85;;;7.57;;
69989;SDS011;57331;52.054;5.294;2023-04-06T01:29:58;19.40;;;7.15;;
69989;SDS011;57331;52.054;5.294;2023-04-06T01:32:37;16.10;;;7.37;;
69989;SDS011;57331;52.054;5.294;2023-04-06T01:35:06;17.50;;;7.88;;
69989;SDS011;57331;52.054;5.294;2023-04-06T01:37:39;15.38;;;7.82;;
69989;SDS011;57331;52.054;5.294;2023-04-06T01:40:11;16.25;;;7.30;;
69989;SDS011;57331;52.054;5.294;2023-04-06T01:42:47;15.63;;;7.05;;
69989;SDS011;57331;52.054;5.294;2023-04-06T01:45:22;18.37;;;7.80;;
69989;SDS011;57331;52.054;5.294;2023-04-06T01:47:52;14.95;;;7.03;;
69989;SDS011;57331;52.054;5.294;2023-04-06T01:50:23;16.48;;;7.75;;
69989;SDS011;57331;52.054;5.294;2023-04-06T01:52:50;15.13;;;7.35;;
69989;SDS011;57331;52.054;5.294;2023-04-06T01:55:18;16.90;;;6.95;;
69989;SDS011;57331;52.054;5.294;2023-04-06T01:58:04;14.37;;;6.83;;
69989;SDS011;57331;52.054;5.294;2023-04-06T02:00:36;16.42;;;6.50;;
69989;SDS011;57331;52.054;5.294;2023-04-06T02:03:03;16.23;;;7.18;;
69989;SDS011;57331;52.054;5.294;2023-04-06T02:05:32;18.83;;;6.90;;
69989;SDS011;57331;52.054;5.294;2023-04-06T02:08:15;17.63;;;7.07;;
69989;SDS011;57331;52.054;5.294;2023-04-06T02:10:43;17.87;;;7.10;;
69989;SDS011;57331;52.054;5.294;2023-04-06T02:13:20;15.57;;;6.88;;
69989;SDS011;57331;52.054;5.294;2023-04-06T02:15:51;15.10;;;7.57;;
69989;SDS011;57331;52.054;5.294;2023-04-06T02:18:19;15.25;;;7.25;;
69989;SDS011;57331;52.054;5.294;2023-04-06T02:20:46;17.80;;;6.65;;
69989;SDS011;57331;52.054;5.294;2023-04-06T02:23:14;17.20;;;7.83;;
69989;SDS011;57331;52.054;5.294;2023-04-06T02:25:41;15.25;;;7.15;;
69989;SDS011;57331;52.054;5.294;2023-04-06T02:28:08;16.10;;;7.13;;
69989;SDS011;57331;52.054;5.294;2023-04-06T02:30:36;19.13;;;7.18;;
69989;SDS011;57331;52.054;5.294;2023-04-06T02:33:04;17.27;;;7.65;;
69989;SDS011;57331;52.054;5.294;2023-04-06T02:35:39;16.50;;;6.87;;
69989;SDS011;57331;52.054;5.294;2023-04-06T02:38:07;16.02;;;6.63;;
69989;SDS011;57331;52.054;5.294;2023-04-06T02:40:33;14.30;;;5.53;;
69989;SDS011;57331;52.054;5.294;2023-04-06T02:43:12;13.98;;;7.00;;
69989;SDS011;57331;52.054;5.294;2023-04-06T02:45:40;15.32;;;6.70;;
69989;SDS011;57331;52.054;5.294;2023-04-06T02:48:09;13.83;;;6.90;;
69989;SDS011;57331;52.054;5.294;2023-04-06T02:50:36;15.82;;;6.38;;
69989;SDS011;57331;52.054;5.294;2023-04-06T02:53:06;15.43;;;6.72;;
69989;SDS011;57331;52.054;5.294;2023-04-06T02:55:34;14.65;;;6.78;;
69989;SDS011;57331;52.054;5.294;2023-04-06T02:58:02;16.15;;;7.13;;
69989;SDS011;57331;52.054;5.294;2023-04-06T03:00:37;18.33;;;7.50;;
69989;SDS011;57331;52.054;5.294;2023-04-06T03:03:04;18.23;;;7.53;;
69989;SDS011;57331;52.054;5.294;2023-04-06T03:05:32;17.85;;;7.82;;
69989;SDS011;57331;52.054;5.294;2023-04-06T03:08:00;16.08;;;7.43;;
69989;SDS011;57331;52.054;5.294;2023-04-06T03:10:39;16.88;;;7.03;;
69989;SDS011;57331;52.054;5.294;2023-04-06T03:13:07;15.47;;;7.10;;
69989;SDS011;57331;52.054;5.294;2023-04-06T03:16:01;17.02;;;7.55;;
69989;SDS011;57331;52.054;5.294;2023-04-06T03:18:28;17.75;;;7.63;;
69989;SDS011;57331;52.054;5.294;2023-04-06T03:20:56;16.48;;;7.25;;
69989;SDS011;57331;52.054;5.294;2023-04-06T03:23:29;15.18;;;8.15;;
69989;SDS011;57331;52.054;5.294;2023-04-06T03:25:59;15.67;;;6.77;;
69989;SDS011;57331;52.054;5.294;2023-04-06T03:28:26;14.18;;;6.78;;
69989;SDS011;57331;52.054;5.294;2023-04-06T03:30:57;13.80;;;6.55;;
69989;SDS011;57331;52.054;5.294;2023-04-06T03:33:40;16.65;;;7.18;;
69989;SDS011;57331;52.054;5.294;2023-04-06T03:36:12;19.02;;;8.00;;
69989;SDS011;57331;52.054;5.294;2023-04-06T03:38:41;19.20;;;7.73;;
69989;SDS011;57331;52.054;5.294;2023-04-06T03:41:11;15.02;;;6.43;;
69989;SDS011;57331;52.054;5.294;2023-04-06T03:43:43;18.02;;;8.38;;
69989;SDS011;57331;52.054;5.294;2023-04-06T03:46:11;18.63;;;8.25;;
69989;SDS011;57331;52.054;5.294;2023-04-06T03:48:38;19.48;;;8.38;;
69989;SDS011;57331;52.054;5.294;2023-04-06T03:51:06;16.83;;;8.20;;
69989;SDS011;57331;52.054;5.294;2023-04-06T03:53:33;17.05;;;6.55;;
69989;SDS011;57331;52.054;5.294;2023-04-06T03:56:00;15.02;;;7.43;;
69989;SDS011;57331;52.054;5.294;2023-04-06T03:58:30;22.55;;;7.75;;
69989;SDS011;57331;52.054;5.294;2023-04-06T04:00:57;18.58;;;8.18;;
69989;SDS011;57331;52.054;5.294;2023-04-06T04:03:25;20.13;;;7.83;;
69989;SDS011;57331;52.054;5.294;2023-04-06T04:05:54;15.23;;;7.55;;
69989;SDS011;57331;52.054;5.294;2023-04-06T04:08:24;15.27;;;7.55;;
69989;SDS011;57331;52.054;5.294;2023-04-06T04:10:51;21.83;;;8.65;;
69989;SDS011;57331;52.054;5.294;2023-04-06T04:13:18;20.13;;;8.10;;
69989;SDS011;57331;52.054;5.294;2023-04-06T04:15:48;18.93;;;8.30;;
69989;SDS011;57331;52.054;5.294;2023-04-06T04:18:16;18.92;;;8.18;;
69989;SDS011;57331;52.054;5.294;2023-04-06T04:20:43;14.40;;;6.68;;
69989;SDS011;57331;52.054;5.294;2023-04-06T04:23:12;15.82;;;7.13;;
69989;SDS011;57331;52.054;5.294;2023-04-06T04:25:39;17.83;;;7.75;;
69989;SDS011;57331;52.054;5.294;2023-04-06T04:28:06;16.93;;;8.40;;
69989;SDS011;57331;52.054;5.294;2023-04-06T04:30:34;18.88;;;8.00;;
69989;SDS011;57331;52.054;5.294;2023-04-06T04:33:06;18.02;;;8.07;;
69989;SDS011;57331;52.054;5.294;2023-04-06T04:35:34;27.42;;;8.65;;
69989;SDS011;57331;52.054;5.294;2023-04-06T04:38:02;17.95;;;8.10;;
69989;SDS011;57331;52.054;5.294;2023-04-06T04:40:31;17.00;;;8.53;;
69989;SDS011;57331;52.054;5.294;2023-04-06T04:43:06;23.10;;;8.77;;
69989;SDS011;57331;52.054;5.294;2023-04-06T04:45:34;20.92;;;8.18;;
69989;SDS011;57331;52.054;5.294;2023-04-06T04:48:11;18.77;;;7.70;;
69989;SDS011;57331;52.054;5.294;2023-04-06T04:50:59;18.60;;;8.10;;
69989;SDS011;57331;52.054;5.294;2023-04-06T04:53:37;20.50;;;8.13;;
69989;SDS011;57331;52.054;5.294;2023-04-06T04:56:15;18.95;;;8.13;;
69989;SDS011;57331;52.054;5.294;2023-04-06T04:58:43;18.08;;;9.18;;
69989;SDS011;57331;52.054;5.294;2023-04-06T05:01:10;19.63;;;8.50;;
69989;SDS011;57331;52.054;5.294;2023-04-06T05:03:39;18.70;;;8.13;;
69989;SDS011;57331;52.054;5.294;2023-04-06T05:06:12;19.53;;;9.27;;
69989;SDS011;57331;52.054;5.294;2023-04-06T05:08:41;20.15;;;8.98;;
69989;SDS011;57331;52.054;5.294;2023-04-06T05:11:09;15.80;;;8.63;;
69989;SDS011;57331;52.054;5.294;2023-04-06T05:13:42;20.67;;;8.50;;
69989;SDS011;57331;52.054;5.294;2023-04-06T05:16:19;19.15;;;9.27;;
69989;SDS011;57331;52.054;5.294;2023-04-06T05:18:49;20.10;;;8.80;;
69989;SDS011;57331;52.054;5.294;2023-04-06T05:21:17;22.58;;;9.57;;
69989;SDS011;57331;52.054;5.294;2023-04-06T05:23:54;23.15;;;9.90;;
69989;SDS011;57331;52.054;5.294;2023-04-06T05:26:22;22.08;;;10.05;;
69989;SDS011;57331;52.054;5.294;2023-04-06T05:28:52;28.10;;;9.98;;
69989;SDS011;57331;52.054;5.294;2023-04-06T05:31:21;24.33;;;9.70;;
69989;SDS011;57331;52.054;5.294;2023-04-06T05:33:50;18.40;;;7.68;;
69989;SDS011;57331;52.054;5.294;2023-04-06T05:36:28;23.77;;;10.23;;
69989;SDS011;57331;52.054;5.294;2023-04-06T05:38:55;21.40;;;9.68;;
69989;SDS011;57331;52.054;5.294;2023-04-06T05:41:32;21.15;;;9.55;;
69989;SDS011;57331;52.054;5.294;2023-04-06T05:44:00;22.40;;;8.90;;
69989;SDS011;57331;52.054;5.294;2023-04-06T05:46:28;21.02;;;8.90;;
69989;SDS011;57331;52.054;5.294;2023-04-06T05:48:58;23.85;;;10.48;;
69989;SDS011;57331;52.054;5.294;2023-04-06T05:51:29;20.25;;;10.32;;
69989;SDS011;57331;52.054;5.294;2023-04-06T05:53:56;26.15;;;10.00;;
69989;SDS011;57331;52.054;5.294;2023-04-06T05:56:25;22.83;;;9.90;;
69989;SDS011;57331;52.054;5.294;2023-04-06T05:58:52;22.27;;;10.50;;
69989;SDS011;57331;52.054;5.294;2023-04-06T06:01:25;23.08;;;10.73;;
69989;SDS011;57331;52.054;5.294;2023-04-06T06:03:53;26.35;;;11.10;;
69989;SDS011;57331;52.054;5.294;2023-04-06T06:06:23;20.20;;;9.63;;
69989;SDS011;57331;52.054;5.294;2023-04-06T06:09:11;28.70;;;11.23;;
69989;SDS011;57331;52.054;5.294;2023-04-06T06:11:45;22.67;;;9.55;;
69989;SDS011;57331;52.054;5.294;2023-04-06T06:14:15;24.77;;;11.95;;
69989;SDS011;57331;52.054;5.294;2023-04-06T06:16:43;27.60;;;11.05;;
69989;SDS011;57331;52.054;5.294;2023-04-06T06:19:12;31.42;;;12.75;;
69989;SDS011;57331;52.054;5.294;2023-04-06T06:21:39;33.00;;;12.70;;
69989;SDS011;57331;52.054;5.294;2023-04-06T06:24:07;36.85;;;15.23;;
69989;SDS011;57331;52.054;5.294;2023-04-06T06:26:35;33.33;;;14.63;;
69989;SDS011;57331;52.054;5.294;2023-04-06T06:29:04;37.47;;;13.95;;
69989;SDS011;57331;52.054;5.294;2023-04-06T06:31:35;30.45;;;13.38;;
69989;SDS011;57331;52.054;5.294;2023-04-06T06:34:03;30.57;;;11.97;;
69989;SDS011;57331;52.054;5.294;2023-04-06T06:36:32;25.38;;;11.82;;
69989;SDS011;57331;52.054;5.294;2023-04-06T06:39:04;24.77;;;11.52;;
69989;SDS011;57331;52.054;5.294;2023-04-06T06:41:32;22.98;;;10.55;;
69989;SDS011;57331;52.054;5.294;2023-04-06T06:43:59;21.70;;;8.85;;
69989;SDS011;57331;52.054;5.294;2023-04-06T06:46:27;28.00;;;11.07;;
69989;SDS011;57331;52.054;5.294;2023-04-06T06:48:54;26.58;;;11.85;;
69989;SDS011;57331;52.054;5.294;2023-04-06T06:51:22;25.63;;;12.25;;
69989;SDS011;57331;52.054;5.294;2023-04-06T06:53:51;25.13;;;11.48;;
69989;SDS011;57331;52.054;5.294;2023-04-06T06:56:18;18.48;;;9.57;;
69989;SDS011;57331;52.054;5.294;2023-04-06T06:58:46;31.90;;;13.50;;
69989;SDS011;57331;52.054;5.294;2023-04-06T07:01:14;28.15;;;12.27;;
69989;SDS011;57331;52.054;5.294;2023-04-06T07:03:41;24.27;;;12.00;;
69989;SDS011;57331;52.054;5.294;2023-04-06T07:06:08;25.08;;;12.85;;
69989;SDS011;57331;52.054;5.294;2023-04-06T07:08:38;16.08;;;6.85;;
69989;SDS011;57331;52.054;5.294;2023-04-06T07:11:08;28.43;;;12.60;;
69989;SDS011;57331;52.054;5.294;2023-04-06T07:13:35;26.00;;;11.27;;
69989;SDS011;57331;52.054;5.294;2023-04-06T07:16:03;14.77;;;7.68;;
69989;SDS011;57331;52.054;5.294;2023-04-06T07:18:30;25.40;;;12.00;;
69989;SDS011;57331;52.054;5.294;2023-04-06T07:21:01;25.33;;;12.18;;
69989;SDS011;57331;52.054;5.294;2023-04-06T07:23:28;26.13;;;12.97;;
69989;SDS011;57331;52.054;5.294;2023-04-06T07:25:56;24.42;;;11.85;;
69989;SDS011;57331;52.054;5.294;2023-04-06T07:28:23;26.05;;;12.98;;
69989;SDS011;57331;52.054;5.294;2023-04-06T07:30:52;24.42;;;11.32;;
69989;SDS011;57331;52.054;5.294;2023-04-06T07:33:21;25.52;;;12.32;;
69989;SDS011;57331;52.054;5.294;2023-04-06T07:35:49;28.00;;;12.67;;
69989;SDS011;57331;52.054;5.294;2023-04-06T07:38:18;23.50;;;11.15;;
69989;SDS011;57331;52.054;5.294;2023-04-06T07:40:45;26.15;;;12.98;;
69989;SDS011;57331;52.054;5.294;2023-04-06T07:43:12;16.15;;;5.88;;
69989;SDS011;57331;52.054;5.294;2023-04-06T07:45:40;20.10;;;9.75;;
69989;SDS011;57331;52.054;5.294;2023-04-06T07:48:09;29.13;;;12.90;;
69989;SDS011;57331;52.054;5.294;2023-04-06T07:50:37;24.58;;;9.18;;
69989;SDS011;57331;52.054;5.294;2023-04-06T07:53:09;25.10;;;12.05;;
69989;SDS011;57331;52.054;5.294;2023-04-06T07:55:37;30.90;;;13.70;;
69989;SDS011;57331;52.054;5.294;2023-04-06T07:58:04;25.55;;;12.73;;
69989;SDS011;57331;52.054;5.294;2023-04-06T08:00:31;17.70;;;7.93;;
69989;SDS011;57331;52.054;5.294;2023-04-06T08:02:58;26.17;;;12.05;;
69989;SDS011;57331;52.054;5.294;2023-04-06T08:05:26;28.15;;;12.50;;
69989;SDS011;57331;52.054;5.294;2023-04-06T08:07:53;24.92;;;12.45;;
69989;SDS011;57331;52.054;5.294;2023-04-06T08:10:21;28.00;;;12.70;;
69989;SDS011;57331;52.054;5.294;2023-04-06T08:12:48;34.43;;;12.13;;
69989;SDS011;57331;52.054;5.294;2023-04-06T08:15:15;27.05;;;12.35;;
69989;SDS011;57331;52.054;5.294;2023-04-06T08:17:44;15.48;;;7.80;;
69989;SDS011;57331;52.054;5.294;2023-04-06T08:20:12;21.92;;;10.45;;
69989;SDS011;57331;52.054;5.294;2023-04-06T08:22:39;26.48;;;12.07;;
69989;SDS011;57331;52.054;5.294;2023-04-06T08:25:06;24.17;;;10.47;;
69989;SDS011;57331;52.054;5.294;2023-04-06T08:27:34;22.50;;;10.52;;
69989;SDS011;57331;52.054;5.294;2023-04-06T08:30:01;30.05;;;13.00;;
69989;SDS011;57331;52.054;5.294;2023-04-06T08:32:28;27.85;;;10.75;;
69989;SDS011;57331;52.054;5.294;2023-04-06T08:34:56;29.20;;;13.13;;
69989;SDS011;57331;52.054;5.294;2023-04-06T08:37:24;35.93;;;13.90;;
69989;SDS011;57331;52.054;5.294;2023-04-06T08:39:54;30.15;;;12.57;;
69989;SDS011;57331;52.054;5.294;2023-04-06T08:42:21;27.05;;;10.65;;
69989;SDS011;57331;52.054;5.294;2023-04-06T08:44:49;23.52;;;10.65;;
69989;SDS011;57331;52.054;5.294;2023-04-06T08:47:18;23.13;;;11.10;;
69989;SDS011;57331;52.054;5.294;2023-04-06T08:49:49;30.97;;;14.63;;
69989;SDS011;57331;52.054;5.294;2023-04-06T08:52:18;30.35;;;14.80;;
69989;SDS011;57331;52.054;5.294;2023-04-06T08:54:45;27.63;;;13.93;;
69989;SDS011;57331;52.054;5.294;2023-04-06T08:57:13;24.23;;;12.27;;
69989;SDS011;57331;52.054;5.294;2023-04-06T08:59:41;31.77;;;14.27;;
69989;SDS011;57331;52.054;5.294;2023-04-06T09:02:09;27.10;;;11.53;;
69989;SDS011;57331;52.054;5.294;2023-04-06T09:04:41;38.60;;;13.27;;
69989;SDS011;57331;52.054;5.294;2023-04-06T09:07:09;30.23;;;12.57;;
69989;SDS011;57331;52.054;5.294;2023-04-06T09:09:37;30.55;;;14.77;;
69989;SDS011;57331;52.054;5.294;2023-04-06T09:12:09;24.17;;;10.93;;
69989;SDS011;57331;52.054;5.294;2023-04-06T09:14:38;21.50;;;8.63;;
69989;SDS011;57331;52.054;5.294;2023-04-06T09:17:06;32.00;;;13.98;;
69989;SDS011;57331;52.054;5.294;2023-04-06T09:19:33;23.38;;;12.50;;
69989;SDS011;57331;52.054;5.294;2023-04-06T09:22:12;25.95;;;10.80;;
69989;SDS011;57331;52.054;5.294;2023-04-06T09:24:43;29.02;;;13.05;;
69989;SDS011;57331;52.054;5.294;2023-04-06T09:27:14;32.53;;;13.53;;
69989;SDS011;57331;52.054;5.294;2023-04-06T09:29:41;31.23;;;14.48;;
69989;SDS011;57331;52.054;5.294;2023-04-06T09:32:10;32.47;;;14.38;;
69989;SDS011;57331;52.054;5.294;2023-04-06T09:34:38;29.30;;;11.75;;
69989;SDS011;57331;52.054;5.294;2023-04-06T09:37:18;20.38;;;9.40;;
69989;SDS011;57331;52.054;5.294;2023-04-06T09:39:46;32.83;;;13.80;;
69989;SDS011;57331;52.054;5.294;2023-04-06T09:42:25;31.38;;;13.32;;
69989;SDS011;57331;52.054;5.294;2023-04-06T09:44:52;28.45;;;13.63;;
69989;SDS011;57331;52.054;5.294;2023-04-06T09:47:20;29.25;;;12.65;;
69989;SDS011;57331;52.054;5.294;2023-04-06T09:49:56;27.30;;;11.52;;
69989;SDS011;57331;52.054;5.294;2023-04-06T09:52:26;33.37;;;15.40;;
69989;SDS011;57331;52.054;5.294;2023-04-06T09:55:01;25.92;;;11.73;;
69989;SDS011;57331;52.054;5.294;2023-04-06T10:00:57;31.17;;;14.38;;
69989;SDS011;57331;52.054;5.294;2023-04-06T10:03:49;36.65;;;14.98;;
69989;SDS011;57331;52.054;5.294;2023-04-06T10:06:23;32.43;;;14.27;;
69989;SDS011;57331;52.054;5.294;2023-04-06T10:08:54;22.65;;;10.18;;
69989;SDS011;57331;52.054;5.294;2023-04-06T10:11:22;28.45;;;12.90;;
69989;SDS011;57331;52.054;5.294;2023-04-06T10:13:50;22.38;;;10.30;;
69989;SDS011;57331;52.054;5.294;2023-04-06T10:16:17;22.23;;;11.15;;
69989;SDS011;57331;52.054;5.294;2023-04-06T10:18:46;16.47;;;8.17;;
69989;SDS011;57331;52.054;5.294;2023-04-06T10:21:22;23.00;;;9.55;;
69989;SDS011;57331;52.054;5.294;2023-04-06T10:23:58;15.30;;;6.60;;
69989;SDS011;57331;52.054;5.294;2023-04-06T10:26:26;17.13;;;8.10;;
69989;SDS011;57331;52.054;5.294;2023-04-06T10:28:54;11.43;;;5.35;;
69989;SDS011;57331;52.054;5.294;2023-04-06T10:31:25;12.33;;;5.53;;
69989;SDS011;57331;52.054;5.294;2023-04-06T10:36:27;14.18;;;6.75;;
69989;SDS011;57331;52.054;5.294;2023-04-06T10:39:02;10.07;;;5.88;;
69989;SDS011;57331;52.054;5.294;2023-04-06T10:41:34;11.73;;;5.65;;
69989;SDS011;57331;52.054;5.294;2023-04-06T10:44:02;9.17;;;4.60;;
69989;SDS011;57331;52.054;5.294;2023-04-06T10:46:30;8.23;;;3.55;;
69989;SDS011;57331;52.054;5.294;2023-04-06T10:48:57;12.30;;;4.90;;
69989;SDS011;57331;52.054;5.294;2023-04-06T10:51:27;8.73;;;4.22;;
69989;SDS011;57331;52.054;5.294;2023-04-06T10:53:55;7.25;;;3.40;;
69989;SDS011;57331;52.054;5.294;2023-04-06T10:56:24;7.63;;;3.67;;
69989;SDS011;57331;52.054;5.294;2023-04-06T10:58:54;7.75;;;3.10;;
69989;SDS011;57331;52.054;5.294;2023-04-06T11:01:24;8.32;;;4.43;;
69989;SDS011;57331;52.054;5.294;2023-04-06T11:03:55;9.32;;;4.05;;
69989;SDS011;57331;52.054;5.294;2023-04-06T11:06:27;7.57;;;3.95;;
69989;SDS011;57331;52.054;5.294;2023-04-06T11:08:56;9.40;;;4.17;;
69989;SDS011;57331;52.054;5.294;2023-04-06T11:11:24;8.50;;;4.05;;
69989;SDS011;57331;52.054;5.294;2023-04-06T11:13:53;11.80;;;5.30;;
69989;SDS011;57331;52.054;5.294;2023-04-06T11:16:26;12.43;;;5.25;;
69989;SDS011;57331;52.054;5.294;2023-04-06T11:18:55;9.68;;;4.40;;
69989;SDS011;57331;52.054;5.294;2023-04-06T11:21:40;8.93;;;4.43;;
69989;SDS011;57331;52.054;5.294;2023-04-06T11:24:13;6.57;;;3.17;;
69989;SDS011;57331;52.054;5.294;2023-04-06T11:26:46;7.38;;;3.40;;
69989;SDS011;57331;52.054;5.294;2023-04-06T11:29:25;10.27;;;4.15;;
69989;SDS011;57331;52.054;5.294;2023-04-06T11:31:57;6.93;;;3.17;;
69989;SDS011;57331;52.054;5.294;2023-04-06T11:34:30;6.43;;;2.87;;
69989;SDS011;57331;52.054;5.294;2023-04-06T11:37:00;11.55;;;4.10;;
69989;SDS011;57331;52.054;5.294;2023-04-06T11:39:29;9.15;;;4.70;;
69989;SDS011;57331;52.054;5.294;2023-04-06T11:42:00;8.63;;;4.03;;
69989;SDS011;57331;52.054;5.294;2023-04-06T11:44:54;11.20;;;5.40;;
69989;SDS011;57331;52.054;5.294;2023-04-06T11:47:29;9.57;;;4.00;;
69989;SDS011;57331;52.054;5.294;2023-04-06T11:50:08;8.95;;;4.68;;
69989;SDS011;57331;52.054;5.294;2023-04-06T11:52:38;12.25;;;5.75;;
69989;SDS011;57331;52.054;5.294;2023-04-06T11:55:24;11.43;;;5.10;;
69989;SDS011;57331;52.054;5.294;2023-04-06T11:57:51;10.73;;;4.65;;
69989;SDS011;57331;52.054;5.294;2023-04-06T12:00:20;14.07;;;6.80;;
69989;SDS011;57331;52.054;5.294;2023-04-06T12:02:47;16.25;;;5.82;;
69989;SDS011;57331;52.054;5.294;2023-04-06T12:05:15;15.20;;;6.80;;
69989;SDS011;57331;52.054;5.294;2023-04-06T12:07:42;16.73;;;6.97;;
69989;SDS011;57331;52.054;5.294;2023-04-06T12:10:10;12.68;;;5.57;;
69989;SDS011;57331;52.054;5.294;2023-04-06T12:12:37;12.27;;;5.67;;
69989;SDS011;57331;52.054;5.294;2023-04-06T12:15:05;13.57;;;5.90;;
69989;SDS011;57331;52.054;5.294;2023-04-06T12:17:33;12.45;;;5.88;;
69989;SDS011;57331;52.054;5.294;2023-04-06T12:20:00;14.95;;;7.13;;
69989;SDS011;57331;52.054;5.294;2023-04-06T12:22:43;15.43;;;6.72;;
69989;SDS011;57331;52.054;5.294;2023-04-06T12:25:11;18.57;;;6.93;;
69989;SDS011;57331;52.054;5.294;2023-04-06T12:27:38;15.68;;;8.77;;
69989;SDS011;57331;52.054;5.294;2023-04-06T12:30:05;16.27;;;7.13;;
69989;SDS011;57331;52.054;5.294;2023-04-06T12:32:33;15.20;;;7.07;;
69989;SDS011;57331;52.054;5.294;2023-04-06T12:35:00;15.25;;;7.40;;
69989;SDS011;57331;52.054;5.294;2023-04-06T12:37:27;15.63;;;7.47;;
69989;SDS011;57331;52.054;5.294;2023-04-06T12:39:55;15.10;;;6.07;;
69989;SDS011;57331;52.054;5.294;2023-04-06T12:42:22;15.48;;;7.03;;
69989;SDS011;57331;52.054;5.294;2023-04-06T12:44:49;16.88;;;7.15;;
69989;SDS011;57331;52.054;5.294;2023-04-06T12:47:17;13.07;;;6.95;;
69989;SDS011;57331;52.054;5.294;2023-04-06T12:49:44;18.63;;;8.57;;
69989;SDS011;57331;52.054;5.294;2023-04-06T12:52:12;17.48;;;9.25;;
69989;SDS011;57331;52.054;5.294;2023-04-06T12:54:39;17.35;;;8.40;;
69989;SDS011;57331;52.054;5.294;2023-04-06T12:57:07;17.58;;;7.82;;
69989;SDS011;57331;52.054;5.294;2023-04-06T12:59:34;11.82;;;6.22;;
69989;SDS011;57331;52.054;5.294;2023-04-06T13:02:04;14.67;;;7.33;;
69989;SDS011;57331;52.054;5.294;2023-04-06T13:04:31;13.18;;;6.95;;
69989;SDS011;57331;52.054;5.294;2023-04-06T13:06:58;14.10;;;6.78;;
69989;SDS011;57331;52.054;5.294;2023-04-06T13:09:26;17.00;;;6.90;;
69989;SDS011;57331;52.054;5.294;2023-04-06T13:11:53;19.63;;;8.82;;
69989;SDS011;57331;52.054;5.294;2023-04-06T13:14:20;17.87;;;8.60;;
69989;SDS011;57331;52.054;5.294;2023-04-06T13:16:48;16.13;;;7.82;;
69989;SDS011;57331;52.054;5.294;2023-04-06T13:19:15;15.57;;;8.10;;
69989;SDS011;57331;52.054;5.294;2023-04-06T13:21:42;15.43;;;7.47;;
69989;SDS011;57331;52.054;5.294;2023-04-06T13:24:10;15.38;;;7.45;;
69989;SDS011;57331;52.054;5.294;2023-04-06T13:26:37;16.87;;;7.63;;
69989;SDS011;57331;52.054;5.294;2023-04-06T13:29:04;20.38;;;9.93;;
69989;SDS011;57331;52.054;5.294;2023-04-06T13:31:32;16.65;;;8.38;;
69989;SDS011;57331;52.054;5.294;2023-04-06T13:33:59;15.77;;;8.73;;
69989;SDS011;57331;52.054;5.294;2023-04-06T13:36:27;11.70;;;5.80;;
69989;SDS011;57331;52.054;5.294;2023-04-06T13:38:54;18.07;;;7.43;;
69989;SDS011;57331;52.054;5.294;2023-04-06T13:41:22;17.13;;;7.38;;
69989;SDS011;57331;52.054;5.294;2023-04-06T13:43:50;19.30;;;8.13;;
69989;SDS011;57331;52.054;5.294;2023-04-06T13:46:18;15.88;;;7.78;;
69989;SDS011;57331;52.054;5.294;2023-04-06T13:48:46;15.43;;;7.43;;
69989;SDS011;57331;52.054;5.294;2023-04-06T13:51:14;17.73;;;8.73;;
69989;SDS011;57331;52.054;5.294;2023-04-06T13:53:41;18.10;;;9.07;;
69989;SDS011;57331;52.054;5.294;2023-04-06T13:56:09;15.30;;;7.55;;
69989;SDS011;57331;52.054;5.294;2023-04-06T13:58:36;19.63;;;8.95;;
69989;SDS011;57331;52.054;5.294;2023-04-06T14:01:06;9.15;;;4.97;;
69989;SDS011;57331;52.054;5.294;2023-04-06T14:03:36;14.90;;;7.07;;
69989;SDS011;57331;52.054;5.294;2023-04-06T14:06:09;16.48;;;8.50;;
69989;SDS011;57331;52.054;5.294;2023-04-06T14:08:56;16.60;;;7.45;;
69989;SDS011;57331;52.054;5.294;2023-04-06T14:11:24;15.07;;;7.93;;
69989;SDS011;57331;52.054;5.294;2023-04-06T14:13:51;15.73;;;6.60;;
69989;SDS011;57331;52.054;5.294;2023-04-06T14:16:19;16.80;;;8.33;;
69989;SDS011;57331;52.054;5.294;2023-04-06T14:18:49;18.35;;;8.68;;
69989;SDS011;57331;52.054;5.294;2023-04-06T14:21:17;17.88;;;8.10;;
69989;SDS011;57331;52.054;5.294;2023-04-06T14:23:44;14.95;;;7.72;;
69989;SDS011;57331;52.054;5.294;2023-04-06T14:26:12;21.52;;;10.00;;
69989;SDS011;57331;52.054;5.294;2023-04-06T14:28:40;18.17;;;9.07;;
69989;SDS011;57331;52.054;5.294;2023-04-06T14:31:11;14.55;;;7.13;;
69989;SDS011;57331;52.054;5.294;2023-04-06T14:33:39;20.25;;;9.32;;
69989;SDS011;57331;52.054;5.294;2023-04-06T14:36:07;16.92;;;8.45;;
69989;SDS011;57331;52.054;5.294;2023-04-06T14:38:34;15.25;;;6.85;;
69989;SDS011;57331;52.054;5.294;2023-04-06T14:41:01;13.63;;;6.00;;
69989;SDS011;57331;52.054;5.294;2023-04-06T14:43:29;16.40;;;6.47;;
69989;SDS011;57331;52.054;5.294;2023-04-06T14:46:00;18.67;;;9.35;;
69989;SDS011;57331;52.054;5.294;2023-04-06T14:48:27;23.85;;;14.00;;
69989;SDS011;57331;52.054;5.294;2023-04-06T14:50:55;16.55;;;8.48;;
69989;SDS011;57331;52.054;5.294;2023-04-06T14:53:23;12.33;;;5.93;;